Viracopos International Airport
SBKP : now visible

Airfield :











YOU CAN JOIN US ON...

 
LOGIN :

Register | Disclaimer

   EN    FR    IT 

 









Legend :    VFR   Marginal VFR   IFR   Intensive IFR   Very Intensive IFR
Visi :
Ceiling :
>= 8 km
>= 3000ft
5 to 8 km
1000 to 3000 ft
1500m to 5 km
500 to 1000 ft
800 to 1500m
200 to 500 ft
< 800m
< 200 ft
Symbols :   Thunderstorms  Fog  Heavy snow  Heavy precipitations  Wind > 20 kt






- Airport Elevation : 2170 ft
- IATA code : VCP


SBKP - Viracopos International

CURRENT METAR :
  • 020500Z 14007KT 9000 NSC 15/13 Q1017

EXPIRED METARs :
  • 020400Z 12006KT CAVOK 16/12 Q1017
  • 020300Z 11006KT CAVOK 16/11 Q1017

TAF TAF SBKP
Valid from the 02 at 06:00 until the 03 at 06:00 UTC


020200Z 0206/0306 00000KT 9999 SCT015 TN11/0209Z TX24/0218Z
PROB30 0208/0210 8000 NSC
BECMG 0210/0212 33007KT 9999 SCT020
PROB30 0215/0218 23007KT 9000 RA BKN020
PROB30 0218/0224 14007KT 7000 RA BKN015
PROB30 0300/0303 6000 DZ BKN014
BECMG 0303/0305 7000 BKN020
PROB30 0305/0306 4000 BR RMK PHH
SBBS FIR / South America



MET'MAP, your aeronautical weather chart ! - Copyright ORBIFLY December 2007 - Disclaimer

ORBIFLY MET'MAP TEAM :

Programming & Development : Alexandra Zaïnal
Concept & original design : Baudouin d'Aumeries
Assistance for programming : Marc-Olivier Méhu
Technical & hardware support : Manuel Goepfert

Contact : metmap@orbifly.com




SOURCES & CREDITS :

   NOAA       Earth
Advisory